sensor_id;sensor_type;location;lat;lon;timestamp;temperature;humidity
80426;DHT22;69766;51.476;5.704;2023-07-29T00:02:22;18.00;99.90
80426;DHT22;69766;51.476;5.704;2023-07-29T00:04:47;18.00;99.90
80426;DHT22;69766;51.476;5.704;2023-07-29T00:07:13;18.00;99.90
80426;DHT22;69766;51.476;5.704;2023-07-29T00:09:39;18.00;99.90
80426;DHT22;69766;51.476;5.704;2023-07-29T00:12:07;18.00;99.90
80426;DHT22;69766;51.476;5.704;2023-07-29T00:14:33;18.10;99.90
80426;DHT22;69766;51.476;5.704;2023-07-29T00:17:02;18.10;99.90
80426;DHT22;69766;51.476;5.704;2023-07-29T00:19:27;18.20;99.90
80426;DHT22;69766;51.476;5.704;2023-07-29T00:21:54;18.20;99.90
80426;DHT22;69766;51.476;5.704;2023-07-29T00:24:19;18.20;99.90
80426;DHT22;69766;51.476;5.704;2023-07-29T00:26:45;18.20;99.90
80426;DHT22;69766;51.476;5.704;2023-07-29T00:29:10;18.20;99.90
80426;DHT22;69766;51.476;5.704;2023-07-29T00:31:36;18.30;99.90
80426;DHT22;69766;51.476;5.704;2023-07-29T00:34:01;18.30;99.90
80426;DHT22;69766;51.476;5.704;2023-07-29T00:36:27;18.40;99.90
80426;DHT22;69766;51.476;5.704;2023-07-29T00:38:56;18.50;99.90
80426;DHT22;69766;51.476;5.704;2023-07-29T00:41:22;18.50;99.90
80426;DHT22;69766;51.476;5.704;2023-07-29T00:43:48;18.50;99.90
80426;DHT22;69766;51.476;5.704;2023-07-29T00:46:17;18.50;99.90
80426;DHT22;69766;51.476;5.704;2023-07-29T00:48:43;18.40;99.90
80426;DHT22;69766;51.476;5.704;2023-07-29T00:51:09;18.40;99.90
80426;DHT22;69766;51.476;5.704;2023-07-29T00:53:35;18.40;99.90
80426;DHT22;69766;51.476;5.704;2023-07-29T00:56:04;18.40;99.90
80426;DHT22;69766;51.476;5.704;2023-07-29T00:58:30;18.30;99.90
80426;DHT22;69766;51.476;5.704;2023-07-29T01:00:56;18.30;99.90
80426;DHT22;69766;51.476;5.704;2023-07-29T01:03:22;18.30;99.90
80426;DHT22;69766;51.476;5.704;2023-07-29T01:05:59;18.30;99.90
80426;DHT22;69766;51.476;5.704;2023-07-29T01:08:50;18.30;99.90
80426;DHT22;69766;51.476;5.704;2023-07-29T01:11:30;18.20;99.90
80426;DHT22;69766;51.476;5.704;2023-07-29T01:16:52;18.20;99.90
80426;DHT22;69766;51.476;5.704;2023-07-29T01:22:24;18.30;99.90
80426;DHT22;69766;51.476;5.704;2023-07-29T01:24:50;18.20;99.90
80426;DHT22;69766;51.476;5.704;2023-07-29T01:27:21;18.20;99.90
80426;DHT22;69766;51.476;5.704;2023-07-29T01:29:47;18.20;99.90
80426;DHT22;69766;51.476;5.704;2023-07-29T01:32:43;18.10;99.90
80426;DHT22;69766;51.476;5.704;2023-07-29T01:35:24;18.10;99.90
80426;DHT22;69766;51.476;5.704;2023-07-29T01:38:29;18.10;99.90
80426;DHT22;69766;51.476;5.704;2023-07-29T01:40:58;18.10;99.90
80426;DHT22;69766;51.476;5.704;2023-07-29T01:43:32;18.20;99.90
80426;DHT22;69766;51.476;5.704;2023-07-29T01:45:58;18.20;99.90
80426;DHT22;69766;51.476;5.704;2023-07-29T01:48:25;18.20;99.90
80426;DHT22;69766;51.476;5.704;2023-07-29T01:50:52;18.30;99.90
80426;DHT22;69766;51.476;5.704;2023-07-29T01:53:18;18.30;99.90
80426;DHT22;69766;51.476;5.704;2023-07-29T01:55:44;18.20;99.90
80426;DHT22;69766;51.476;5.704;2023-07-29T01:58:10;18.30;99.90
80426;DHT22;69766;51.476;5.704;2023-07-29T02:00:36;18.30;99.90
80426;DHT22;69766;51.476;5.704;2023-07-29T02:03:02;18.30;99.90
80426;DHT22;69766;51.476;5.704;2023-07-29T02:05:29;18.20;99.90
80426;DHT22;69766;51.476;5.704;2023-07-29T02:07:55;18.10;99.90
80426;DHT22;69766;51.476;5.704;2023-07-29T02:10:20;18.10;99.90
80426;DHT22;69766;51.476;5.704;2023-07-29T02:12:46;18.00;99.90
80426;DHT22;69766;51.476;5.704;2023-07-29T02:15:11;18.00;99.90
80426;DHT22;69766;51.476;5.704;2023-07-29T02:17:37;17.90;99.90
80426;DHT22;69766;51.476;5.704;2023-07-29T02:20:03;17.90;99.90
80426;DHT22;69766;51.476;5.704;2023-07-29T02:22:29;17.90;99.90
80426;DHT22;69766;51.476;5.704;2023-07-29T02:24:55;17.80;99.90
80426;DHT22;69766;51.476;5.704;2023-07-29T02:27:21;17.80;99.90
80426;DHT22;69766;51.476;5.704;2023-07-29T02:29:47;17.80;99.90
80426;DHT22;69766;51.476;5.704;2023-07-29T02:32:12;17.70;99.90
80426;DHT22;69766;51.476;5.704;2023-07-29T02:34:38;17.70;99.90
80426;DHT22;69766;51.476;5.704;2023-07-29T02:37:04;17.60;99.90
80426;DHT22;69766;51.476;5.704;2023-07-29T02:39:30;17.60;99.90
80426;DHT22;69766;51.476;5.704;2023-07-29T02:41:56;17.60;99.90
80426;DHT22;69766;51.476;5.704;2023-07-29T02:44:23;17.50;99.90
80426;DHT22;69766;51.476;5.704;2023-07-29T02:46:49;17.40;99.90
80426;DHT22;69766;51.476;5.704;2023-07-29T02:49:15;17.30;99.90
80426;DHT22;69766;51.476;5.704;2023-07-29T02:51:40;17.40;99.90
80426;DHT22;69766;51.476;5.704;2023-07-29T02:54:06;17.30;99.90
80426;DHT22;69766;51.476;5.704;2023-07-29T02:56:32;17.30;99.90
80426;DHT22;69766;51.476;5.704;2023-07-29T02:58:57;17.20;99.90
80426;DHT22;69766;51.476;5.704;2023-07-29T03:01:23;17.20;99.90
80426;DHT22;69766;51.476;5.704;2023-07-29T03:03:50;17.20;99.90
80426;DHT22;69766;51.476;5.704;2023-07-29T03:06:16;17.20;99.90
80426;DHT22;69766;51.476;5.704;2023-07-29T03:08:42;17.20;99.90
80426;DHT22;69766;51.476;5.704;2023-07-29T03:11:13;17.20;99.90
80426;DHT22;69766;51.476;5.704;2023-07-29T03:13:39;17.10;99.90
80426;DHT22;69766;51.476;5.704;2023-07-29T03:16:12;17.10;99.90
80426;DHT22;69766;51.476;5.704;2023-07-29T03:18:40;17.10;99.90
80426;DHT22;69766;51.476;5.704;2023-07-29T03:21:06;17.00;99.90
80426;DHT22;69766;51.476;5.704;2023-07-29T03:23:33;17.00;99.90
80426;DHT22;69766;51.476;5.704;2023-07-29T03:26:00;16.90;99.90
80426;DHT22;69766;51.476;5.704;2023-07-29T03:28:28;16.90;99.90
80426;DHT22;69766;51.476;5.704;2023-07-29T03:30:57;16.90;99.90
80426;DHT22;69766;51.476;5.704;2023-07-29T03:33:23;16.90;99.90
80426;DHT22;69766;51.476;5.704;2023-07-29T03:35:49;16.80;99.90
80426;DHT22;69766;51.476;5.704;2023-07-29T03:38:15;16.80;99.90
80426;DHT22;69766;51.476;5.704;2023-07-29T03:40:41;16.80;99.90
80426;DHT22;69766;51.476;5.704;2023-07-29T03:43:07;16.80;99.90
80426;DHT22;69766;51.476;5.704;2023-07-29T03:45:34;16.80;99.90
80426;DHT22;69766;51.476;5.704;2023-07-29T03:48:00;16.80;99.90
80426;DHT22;69766;51.476;5.704;2023-07-29T03:50:26;16.80;99.90
80426;DHT22;69766;51.476;5.704;2023-07-29T03:52:52;16.80;99.90
80426;DHT22;69766;51.476;5.704;2023-07-29T03:55:18;16.80;99.90
80426;DHT22;69766;51.476;5.704;2023-07-29T03:57:44;16.70;99.90
80426;DHT22;69766;51.476;5.704;2023-07-29T04:00:10;16.80;99.90
80426;DHT22;69766;51.476;5.704;2023-07-29T04:02:36;16.70;99.90
80426;DHT22;69766;51.476;5.704;2023-07-29T04:05:05;16.70;99.90
80426;DHT22;69766;51.476;5.704;2023-07-29T04:07:36;16.70;99.90
80426;DHT22;69766;51.476;5.704;2023-07-29T04:10:03;16.60;99.90
80426;DHT22;69766;51.476;5.704;2023-07-29T04:12:29;16.60;99.90
80426;DHT22;69766;51.476;5.704;2023-07-29T04:14:54;16.50;99.90
80426;DHT22;69766;51.476;5.704;2023-07-29T04:17:20;16.50;99.90
80426;DHT22;69766;51.476;5.704;2023-07-29T04:19:46;16.50;99.90
80426;DHT22;69766;51.476;5.704;2023-07-29T04:22:11;16.40;99.90
80426;DHT22;69766;51.476;5.704;2023-07-29T04:24:37;16.40;99.90
80426;DHT22;69766;51.476;5.704;2023-07-29T04:27:04;16.50;99.90
80426;DHT22;69766;51.476;5.704;2023-07-29T04:29:29;16.50;99.90
80426;DHT22;69766;51.476;5.704;2023-07-29T04:31:55;16.40;99.90
80426;DHT22;69766;51.476;5.704;2023-07-29T04:34:21;16.40;99.90
80426;DHT22;69766;51.476;5.704;2023-07-29T04:36:47;16.50;99.90
80426;DHT22;69766;51.476;5.704;2023-07-29T04:39:13;16.50;99.90
80426;DHT22;69766;51.476;5.704;2023-07-29T04:41:39;16.50;99.90
80426;DHT22;69766;51.476;5.704;2023-07-29T04:44:04;16.50;99.90
80426;DHT22;69766;51.476;5.704;2023-07-29T04:46:30;16.40;99.90
80426;DHT22;69766;51.476;5.704;2023-07-29T04:48:56;16.50;99.90
80426;DHT22;69766;51.476;5.704;2023-07-29T04:51:21;16.50;99.90
80426;DHT22;69766;51.476;5.704;2023-07-29T04:53:47;16.50;99.90
80426;DHT22;69766;51.476;5.704;2023-07-29T04:56:13;16.60;99.90
80426;DHT22;69766;51.476;5.704;2023-07-29T04:58:39;16.60;99.90
80426;DHT22;69766;51.476;5.704;2023-07-29T05:01:05;16.70;99.90
80426;DHT22;69766;51.476;5.704;2023-07-29T05:03:31;16.70;99.90
80426;DHT22;69766;51.476;5.704;2023-07-29T05:05:58;16.70;99.90
80426;DHT22;69766;51.476;5.704;2023-07-29T05:08:25;16.70;99.90
80426;DHT22;69766;51.476;5.704;2023-07-29T05:10:51;16.70;99.90
80426;DHT22;69766;51.476;5.704;2023-07-29T05:13:18;16.70;99.90
80426;DHT22;69766;51.476;5.704;2023-07-29T05:15:44;16.80;99.90
80426;DHT22;69766;51.476;5.704;2023-07-29T05:18:10;16.80;99.90
80426;DHT22;69766;51.476;5.704;2023-07-29T05:20:36;16.80;99.90
80426;DHT22;69766;51.476;5.704;2023-07-29T05:23:02;16.90;99.90
80426;DHT22;69766;51.476;5.704;2023-07-29T05:25:29;16.90;99.90
80426;DHT22;69766;51.476;5.704;2023-07-29T05:27:55;17.00;99.90
80426;DHT22;69766;51.476;5.704;2023-07-29T05:30:20;17.00;99.90
80426;DHT22;69766;51.476;5.704;2023-07-29T05:32:46;17.00;99.90
80426;DHT22;69766;51.476;5.704;2023-07-29T05:35:12;17.10;99.90
80426;DHT22;69766;51.476;5.704;2023-07-29T05:37:41;17.10;99.90
80426;DHT22;69766;51.476;5.704;2023-07-29T05:40:07;17.10;99.90
80426;DHT22;69766;51.476;5.704;2023-07-29T05:42:34;17.10;99.90
80426;DHT22;69766;51.476;5.704;2023-07-29T05:45:00;17.00;99.90
80426;DHT22;69766;51.476;5.704;2023-07-29T05:47:26;17.00;99.90
80426;DHT22;69766;51.476;5.704;2023-07-29T05:49:52;17.00;99.90
80426;DHT22;69766;51.476;5.704;2023-07-29T05:52:18;16.90;99.90
80426;DHT22;69766;51.476;5.704;2023-07-29T05:54:44;16.90;99.90
80426;DHT22;69766;51.476;5.704;2023-07-29T05:57:11;16.90;99.90
80426;DHT22;69766;51.476;5.704;2023-07-29T05:59:36;16.90;99.90
80426;DHT22;69766;51.476;5.704;2023-07-29T06:02:02;17.00;99.90
80426;DHT22;69766;51.476;5.704;2023-07-29T06:04:28;17.00;99.90
80426;DHT22;69766;51.476;5.704;2023-07-29T06:06:54;17.10;99.90
80426;DHT22;69766;51.476;5.704;2023-07-29T06:09:23;17.20;99.90
80426;DHT22;69766;51.476;5.704;2023-07-29T06:11:50;17.40;99.90
80426;DHT22;69766;51.476;5.704;2023-07-29T06:14:16;17.60;99.90
80426;DHT22;69766;51.476;5.704;2023-07-29T06:16:42;17.80;99.90
80426;DHT22;69766;51.476;5.704;2023-07-29T06:19:07;17.90;99.90
80426;DHT22;69766;51.476;5.704;2023-07-29T06:21:34;17.90;99.90
80426;DHT22;69766;51.476;5.704;2023-07-29T06:24:00;18.10;99.90
80426;DHT22;69766;51.476;5.704;2023-07-29T06:26:26;18.00;99.90
80426;DHT22;69766;51.476;5.704;2023-07-29T06:28:52;17.80;99.90
80426;DHT22;69766;51.476;5.704;2023-07-29T06:31:18;17.80;99.90
80426;DHT22;69766;51.476;5.704;2023-07-29T06:33:47;17.90;99.90
80426;DHT22;69766;51.476;5.704;2023-07-29T06:36:13;18.30;99.90
80426;DHT22;69766;51.476;5.704;2023-07-29T06:38:39;18.90;99.90
80426;DHT22;69766;51.476;5.704;2023-07-29T06:41:06;19.70;99.90
80426;DHT22;69766;51.476;5.704;2023-07-29T06:43:32;20.40;99.90
80426;DHT22;69766;51.476;5.704;2023-07-29T06:45:57;20.40;99.90
80426;DHT22;69766;51.476;5.704;2023-07-29T06:48:23;20.10;99.90
80426;DHT22;69766;51.476;5.704;2023-07-29T06:50:49;19.80;99.90
80426;DHT22;69766;51.476;5.704;2023-07-29T06:53:18;19.70;99.90
80426;DHT22;69766;51.476;5.704;2023-07-29T06:55:44;19.30;99.90
80426;DHT22;69766;51.476;5.704;2023-07-29T06:58:10;19.10;99.90
80426;DHT22;69766;51.476;5.704;2023-07-29T07:00:36;19.10;99.90
80426;DHT22;69766;51.476;5.704;2023-07-29T07:03:02;19.20;99.90
80426;DHT22;69766;51.476;5.704;2023-07-29T07:05:27;19.30;99.90
80426;DHT22;69766;51.476;5.704;2023-07-29T07:07:53;19.60;99.90
80426;DHT22;69766;51.476;5.704;2023-07-29T07:10:19;19.80;99.90
80426;DHT22;69766;51.476;5.704;2023-07-29T07:12:45;20.00;99.90
80426;DHT22;69766;51.476;5.704;2023-07-29T07:15:10;20.10;99.90
80426;DHT22;69766;51.476;5.704;2023-07-29T07:17:36;20.00;99.90
80426;DHT22;69766;51.476;5.704;2023-07-29T07:20:02;20.20;99.90
80426;DHT22;69766;51.476;5.704;2023-07-29T07:22:28;20.30;99.90
80426;DHT22;69766;51.476;5.704;2023-07-29T07:24:54;20.30;99.90
80426;DHT22;69766;51.476;5.704;2023-07-29T07:27:20;20.20;99.90
80426;DHT22;69766;51.476;5.704;2023-07-29T07:30:14;20.00;99.90
80426;DHT22;69766;51.476;5.704;2023-07-29T07:32:43;20.10;99.90
80426;DHT22;69766;51.476;5.704;2023-07-29T07:35:08;20.10;99.90
80426;DHT22;69766;51.476;5.704;2023-07-29T07:37:34;20.10;99.90
80426;DHT22;69766;51.476;5.704;2023-07-29T07:40:00;19.90;99.90
80426;DHT22;69766;51.476;5.704;2023-07-29T07:42:25;19.80;99.90
80426;DHT22;69766;51.476;5.704;2023-07-29T07:44:51;19.90;99.90
80426;DHT22;69766;51.476;5.704;2023-07-29T07:47:17;20.70;99.90
80426;DHT22;69766;51.476;5.704;2023-07-29T07:49:43;20.60;99.90
80426;DHT22;69766;51.476;5.704;2023-07-29T07:52:17;20.70;99.90
80426;DHT22;69766;51.476;5.704;2023-07-29T07:54:54;20.70;99.90
80426;DHT22;69766;51.476;5.704;2023-07-29T07:57:23;20.80;99.90
80426;DHT22;69766;51.476;5.704;2023-07-29T07:59:49;20.90;99.90
80426;DHT22;69766;51.476;5.704;2023-07-29T08:02:14;21.00;99.90
80426;DHT22;69766;51.476;5.704;2023-07-29T08:04:40;21.20;99.90
80426;DHT22;69766;51.476;5.704;2023-07-29T08:07:09;21.10;99.90
80426;DHT22;69766;51.476;5.704;2023-07-29T08:09:36;21.20;99.90
80426;DHT22;69766;51.476;5.704;2023-07-29T08:12:02;21.30;99.90
80426;DHT22;69766;51.476;5.704;2023-07-29T08:14:34;22.10;99.90
80426;DHT22;69766;51.476;5.704;2023-07-29T08:17:02;22.50;99.90
80426;DHT22;69766;51.476;5.704;2023-07-29T08:19:31;22.30;99.90
80426;DHT22;69766;51.476;5.704;2023-07-29T08:21:57;22.50;99.90
80426;DHT22;69766;51.476;5.704;2023-07-29T08:24:23;22.90;99.90
80426;DHT22;69766;51.476;5.704;2023-07-29T08:26:51;22.50;99.90
80426;DHT22;69766;51.476;5.704;2023-07-29T08:29:22;22.30;99.90
80426;DHT22;69766;51.476;5.704;2023-07-29T08:31:48;22.20;99.90
80426;DHT22;69766;51.476;5.704;2023-07-29T08:34:23;22.20;99.90
80426;DHT22;69766;51.476;5.704;2023-07-29T08:36:52;22.30;99.90
80426;DHT22;69766;51.476;5.704;2023-07-29T08:39:20;22.30;99.90
80426;DHT22;69766;51.476;5.704;2023-07-29T08:42:08;22.10;99.90
80426;DHT22;69766;51.476;5.704;2023-07-29T08:45:01;21.80;99.90
80426;DHT22;69766;51.476;5.704;2023-07-29T08:47:33;21.20;99.90
80426;DHT22;69766;51.476;5.704;2023-07-29T08:49:59;21.10;99.90
80426;DHT22;69766;51.476;5.704;2023-07-29T08:52:29;20.90;99.90
80426;DHT22;69766;51.476;5.704;2023-07-29T08:54:58;21.00;99.90
80426;DHT22;69766;51.476;5.704;2023-07-29T08:57:24;21.20;99.90
80426;DHT22;69766;51.476;5.704;2023-07-29T08:59:54;21.40;99.90
80426;DHT22;69766;51.476;5.704;2023-07-29T09:02:20;21.60;99.90
80426;DHT22;69766;51.476;5.704;2023-07-29T09:04:46;22.00;99.90
80426;DHT22;69766;51.476;5.704;2023-07-29T09:07:21;21.70;99.90
80426;DHT22;69766;51.476;5.704;2023-07-29T09:09:58;21.50;99.90
80426;DHT22;69766;51.476;5.704;2023-07-29T09:12:32;21.90;99.90
80426;DHT22;69766;51.476;5.704;2023-07-29T09:14:58;23.20;99.90
80426;DHT22;69766;51.476;5.704;2023-07-29T09:17:36;23.70;99.90
80426;DHT22;69766;51.476;5.704;2023-07-29T09:20:02;23.30;99.90
80426;DHT22;69766;51.476;5.704;2023-07-29T09:22:29;23.30;99.90
80426;DHT22;69766;51.476;5.704;2023-07-29T09:24:57;24.30;99.90
80426;DHT22;69766;51.476;5.704;2023-07-29T09:27:27;23.70;99.90
80426;DHT22;69766;51.476;5.704;2023-07-29T09:29:57;23.70;99.90
80426;DHT22;69766;51.476;5.704;2023-07-29T09:32:24;23.20;99.90
80426;DHT22;69766;51.476;5.704;2023-07-29T09:34:50;24.00;99.90
80426;DHT22;69766;51.476;5.704;2023-07-29T09:37:27;25.50;99.90
80426;DHT22;69766;51.476;5.704;2023-07-29T09:39:55;26.60;96.20
80426;DHT22;69766;51.476;5.704;2023-07-29T09:42:22;27.00;93.70
80426;DHT22;69766;51.476;5.704;2023-07-29T09:45:01;26.80;93.50
80426;DHT22;69766;51.476;5.704;2023-07-29T09:47:32;27.40;90.50
80426;DHT22;69766;51.476;5.704;2023-07-29T09:49:59;26.50;91.80
80426;DHT22;69766;51.476;5.704;2023-07-29T09:52:35;25.90;94.80
80426;DHT22;69766;51.476;5.704;2023-07-29T09:55:01;25.50;94.20
80426;DHT22;69766;51.476;5.704;2023-07-29T09:57:27;24.80;98.30
80426;DHT22;69766;51.476;5.704;2023-07-29T10:00:03;24.70;97.30
80426;DHT22;69766;51.476;5.704;2023-07-29T10:02:43;24.30;98.30
80426;DHT22;69766;51.476;5.704;2023-07-29T10:05:12;24.40;98.60
80426;DHT22;69766;51.476;5.704;2023-07-29T10:07:39;24.10;98.70
80426;DHT22;69766;51.476;5.704;2023-07-29T10:10:09;23.80;99.90
80426;DHT22;69766;51.476;5.704;2023-07-29T10:12:35;24.20;99.90
80426;DHT22;69766;51.476;5.704;2023-07-29T10:15:10;24.10;99.10
80426;DHT22;69766;51.476;5.704;2023-07-29T10:17:37;23.70;99.50
80426;DHT22;69766;51.476;5.704;2023-07-29T10:20:10;24.70;99.10
80426;DHT22;69766;51.476;5.704;2023-07-29T10:22:41;24.90;97.80
80426;DHT22;69766;51.476;5.704;2023-07-29T10:25:30;24.60;96.90
80426;DHT22;69766;51.476;5.704;2023-07-29T10:28:07;24.30;98.10
80426;DHT22;69766;51.476;5.704;2023-07-29T10:30:33;23.90;98.60
80426;DHT22;69766;51.476;5.704;2023-07-29T10:33:16;24.10;98.80
80426;DHT22;69766;51.476;5.704;2023-07-29T10:35:45;24.50;98.70
80426;DHT22;69766;51.476;5.704;2023-07-29T10:38:11;25.20;96.00
80426;DHT22;69766;51.476;5.704;2023-07-29T10:40:56;24.70;95.90
80426;DHT22;69766;51.476;5.704;2023-07-29T10:43:35;24.40;97.50
80426;DHT22;69766;51.476;5.704;2023-07-29T10:46:31;25.10;97.50
80426;DHT22;69766;51.476;5.704;2023-07-29T10:49:23;26.50;94.40
80426;DHT22;69766;51.476;5.704;2023-07-29T10:51:49;27.60;92.70
80426;DHT22;69766;51.476;5.704;2023-07-29T10:54:14;27.60;89.30
80426;DHT22;69766;51.476;5.704;2023-07-29T10:56:49;27.40;92.90
80426;DHT22;69766;51.476;5.704;2023-07-29T11:01:56;26.60;91.30
80426;DHT22;69766;51.476;5.704;2023-07-29T11:04:50;25.90;91.30
80426;DHT22;69766;51.476;5.704;2023-07-29T11:15:32;25.30;94.80
80426;DHT22;69766;51.476;5.704;2023-07-29T11:18:00;24.70;96.60
80426;DHT22;69766;51.476;5.704;2023-07-29T11:20:35;24.40;96.60
80426;DHT22;69766;51.476;5.704;2023-07-29T11:23:18;24.20;96.40
80426;DHT22;69766;51.476;5.704;2023-07-29T11:26:13;24.20;97.10
80426;DHT22;69766;51.476;5.704;2023-07-29T11:28:54;24.10;96.50
80426;DHT22;69766;51.476;5.704;2023-07-29T11:31:39;24.00;96.50
80426;DHT22;69766;51.476;5.704;2023-07-29T11:34:07;23.90;99.40
80426;DHT22;69766;51.476;5.704;2023-07-29T11:36:32;24.20;96.70
80426;DHT22;69766;51.476;5.704;2023-07-29T11:39:08;24.30;96.50
80426;DHT22;69766;51.476;5.704;2023-07-29T11:41:34;24.40;96.80
80426;DHT22;69766;51.476;5.704;2023-07-29T11:44:18;24.30;96.90
80426;DHT22;69766;51.476;5.704;2023-07-29T11:46:47;24.10;96.90
80426;DHT22;69766;51.476;5.704;2023-07-29T11:49:14;23.80;98.80
80426;DHT22;69766;51.476;5.704;2023-07-29T11:51:41;23.30;99.90
80426;DHT22;69766;51.476;5.704;2023-07-29T11:54:08;22.80;99.90
80426;DHT22;69766;51.476;5.704;2023-07-29T11:56:39;22.00;99.90
80426;DHT22;69766;51.476;5.704;2023-07-29T11:59:10;21.50;99.90
80426;DHT22;69766;51.476;5.704;2023-07-29T12:01:42;21.30;99.90
80426;DHT22;69766;51.476;5.704;2023-07-29T12:04:12;21.20;99.90
80426;DHT22;69766;51.476;5.704;2023-07-29T12:06:41;21.80;99.90
80426;DHT22;69766;51.476;5.704;2023-07-29T12:09:07;22.10;99.90
80426;DHT22;69766;51.476;5.704;2023-07-29T12:11:34;22.00;99.90
80426;DHT22;69766;51.476;5.704;2023-07-29T12:14:01;21.80;99.90
80426;DHT22;69766;51.476;5.704;2023-07-29T12:16:32;21.60;99.90
80426;DHT22;69766;51.476;5.704;2023-07-29T12:19:05;21.50;99.90
80426;DHT22;69766;51.476;5.704;2023-07-29T12:28:27;21.10;99.90
80426;DHT22;69766;51.476;5.704;2023-07-29T12:30:54;21.00;99.90
80426;DHT22;69766;51.476;5.704;2023-07-29T12:33:36;21.00;99.90
80426;DHT22;69766;51.476;5.704;2023-07-29T12:36:19;20.80;99.90
80426;DHT22;69766;51.476;5.704;2023-07-29T12:38:45;20.60;99.90
80426;DHT22;69766;51.476;5.704;2023-07-29T12:41:11;20.40;99.90
80426;DHT22;69766;51.476;5.704;2023-07-29T12:43:39;20.40;99.90
80426;DHT22;69766;51.476;5.704;2023-07-29T12:46:14;20.40;99.90
80426;DHT22;69766;51.476;5.704;2023-07-29T12:48:55;20.40;99.90
80426;DHT22;69766;51.476;5.704;2023-07-29T12:51:31;20.40;99.90
80426;DHT22;69766;51.476;5.704;2023-07-29T12:53:57;20.10;99.90
80426;DHT22;69766;51.476;5.704;2023-07-29T12:56:32;19.80;99.90
80426;DHT22;69766;51.476;5.704;2023-07-29T12:59:05;19.40;99.90
80426;DHT22;69766;51.476;5.704;2023-07-29T13:01:33;18.80;99.90
80426;DHT22;69766;51.476;5.704;2023-07-29T13:03:59;18.50;99.90
80426;DHT22;69766;51.476;5.704;2023-07-29T13:06:25;18.40;99.90
80426;DHT22;69766;51.476;5.704;2023-07-29T13:08:54;18.40;99.90
80426;DHT22;69766;51.476;5.704;2023-07-29T13:11:22;18.60;99.90
80426;DHT22;69766;51.476;5.704;2023-07-29T13:13:50;18.90;99.90
80426;DHT22;69766;51.476;5.704;2023-07-29T13:18:50;20.80;99.90
80426;DHT22;69766;51.476;5.704;2023-07-29T13:21:18;22.80;99.90
80426;DHT22;69766;51.476;5.704;2023-07-29T13:23:44;22.80;99.90
80426;DHT22;69766;51.476;5.704;2023-07-29T13:26:10;22.60;99.90
80426;DHT22;69766;51.476;5.704;2023-07-29T13:28:36;22.90;99.90
80426;DHT22;69766;51.476;5.704;2023-07-29T13:31:05;23.90;99.90
80426;DHT22;69766;51.476;5.704;2023-07-29T13:33:31;25.90;99.90
80426;DHT22;69766;51.476;5.704;2023-07-29T13:36:00;26.50;99.90
80426;DHT22;69766;51.476;5.704;2023-07-29T13:38:30;27.10;99.90
80426;DHT22;69766;51.476;5.704;2023-07-29T13:40:56;27.20;99.90
80426;DHT22;69766;51.476;5.704;2023-07-29T13:43:22;26.90;99.90
80426;DHT22;69766;51.476;5.704;2023-07-29T13:45:48;25.10;99.90
80426;DHT22;69766;51.476;5.704;2023-07-29T13:51:32;25.20;99.90
80426;DHT22;69766;51.476;5.704;2023-07-29T13:53:58;25.40;99.90
80426;DHT22;69766;51.476;5.704;2023-07-29T13:56:26;25.70;99.90
80426;DHT22;69766;51.476;5.704;2023-07-29T13:59:00;26.30;99.90
80426;DHT22;69766;51.476;5.704;2023-07-29T14:01:32;27.10;99.90
80426;DHT22;69766;51.476;5.704;2023-07-29T14:04:01;27.30;99.90
80426;DHT22;69766;51.476;5.704;2023-07-29T14:06:32;27.40;99.90
80426;DHT22;69766;51.476;5.704;2023-07-29T14:08:58;28.00;99.10
80426;DHT22;69766;51.476;5.704;2023-07-29T14:11:27;27.80;99.10
80426;DHT22;69766;51.476;5.704;2023-07-29T14:13:52;27.10;99.80
80426;DHT22;69766;51.476;5.704;2023-07-29T14:16:18;26.70;99.60
80426;DHT22;69766;51.476;5.704;2023-07-29T14:18:54;26.20;99.90
80426;DHT22;69766;51.476;5.704;2023-07-29T14:21:23;25.70;99.90
80426;DHT22;69766;51.476;5.704;2023-07-29T14:23:54;25.30;99.90
80426;DHT22;69766;51.476;5.704;2023-07-29T14:26:20;25.00;99.90
80426;DHT22;69766;51.476;5.704;2023-07-29T14:28:51;25.30;99.90
80426;DHT22;69766;51.476;5.704;2023-07-29T14:31:20;25.70;99.90
80426;DHT22;69766;51.476;5.704;2023-07-29T14:33:46;26.50;99.90
80426;DHT22;69766;51.476;5.704;2023-07-29T14:36:11;26.60;99.90
80426;DHT22;69766;51.476;5.704;2023-07-29T14:38:39;26.70;99.90
80426;DHT22;69766;51.476;5.704;2023-07-29T14:41:05;27.40;99.90
80426;DHT22;69766;51.476;5.704;2023-07-29T14:43:31;26.40;99.90
80426;DHT22;69766;51.476;5.704;2023-07-29T14:46:00;25.90;99.90
80426;DHT22;69766;51.476;5.704;2023-07-29T14:48:26;25.30;99.90
80426;DHT22;69766;51.476;5.704;2023-07-29T14:50:52;25.20;99.90
80426;DHT22;69766;51.476;5.704;2023-07-29T14:53:17;25.50;99.90
80426;DHT22;69766;51.476;5.704;2023-07-29T14:55:49;25.30;99.90
80426;DHT22;69766;51.476;5.704;2023-07-29T14:58:24;24.90;99.90
80426;DHT22;69766;51.476;5.704;2023-07-29T15:00:56;25.20;99.90
80426;DHT22;69766;51.476;5.704;2023-07-29T15:03:25;25.70;99.90
80426;DHT22;69766;51.476;5.704;2023-07-29T15:05:54;24.80;99.90
80426;DHT22;69766;51.476;5.704;2023-07-29T15:08:32;25.10;99.90
80426;DHT22;69766;51.476;5.704;2023-07-29T15:10:58;25.90;99.90
80426;DHT22;69766;51.476;5.704;2023-07-29T15:13:27;26.00;99.90
80426;DHT22;69766;51.476;5.704;2023-07-29T15:16:01;24.80;99.90
80426;DHT22;69766;51.476;5.704;2023-07-29T15:18:27;24.00;99.90
80426;DHT22;69766;51.476;5.704;2023-07-29T15:21:04;23.40;99.90
80426;DHT22;69766;51.476;5.704;2023-07-29T15:23:40;23.20;99.90
80426;DHT22;69766;51.476;5.704;2023-07-29T15:26:07;23.30;99.90
80426;DHT22;69766;51.476;5.704;2023-07-29T15:28:36;23.30;99.90
80426;DHT22;69766;51.476;5.704;2023-07-29T15:31:01;23.60;99.90
80426;DHT22;69766;51.476;5.704;2023-07-29T15:33:30;23.80;99.90
80426;DHT22;69766;51.476;5.704;2023-07-29T15:35:59;23.70;99.90
80426;DHT22;69766;51.476;5.704;2023-07-29T15:38:25;24.00;99.90
80426;DHT22;69766;51.476;5.704;2023-07-29T15:40:57;24.50;99.90
80426;DHT22;69766;51.476;5.704;2023-07-29T15:43:25;24.40;99.90
80426;DHT22;69766;51.476;5.704;2023-07-29T15:45:51;24.30;99.90
80426;DHT22;69766;51.476;5.704;2023-07-29T15:48:17;24.30;99.90
80426;DHT22;69766;51.476;5.704;2023-07-29T15:50:45;24.70;99.90
80426;DHT22;69766;51.476;5.704;2023-07-29T15:53:16;25.10;99.90
80426;DHT22;69766;51.476;5.704;2023-07-29T15:55:50;25.00;99.90
80426;DHT22;69766;51.476;5.704;2023-07-29T15:58:18;24.70;99.90
80426;DHT22;69766;51.476;5.704;2023-07-29T16:00:43;24.60;99.90
80426;DHT22;69766;51.476;5.704;2023-07-29T16:03:09;24.20;99.90
80426;DHT22;69766;51.476;5.704;2023-07-29T16:05:36;24.30;99.90
80426;DHT22;69766;51.476;5.704;2023-07-29T16:08:04;24.50;99.90
80426;DHT22;69766;51.476;5.704;2023-07-29T16:10:33;24.40;99.90